Time;durP1;ratioP1;P1;durP2;ratioP2;P2;SDS_P1;SDS_P2;PMS_P1;PMS_P2;Temp;Humidity;BMP_temperature;BMP_pressure;BME280_temperature;BME280_humidity;BME280_pressure;Samples;Min_cycle;Max_cycle;Signal;HPM_P1;HPM_P2
2023/04/17 00:01:45;;;;;;;55.47;33.22;;;;;;;;;;5017021;28;20523;-90
2023/04/17 00:04:12;;;;;;;53.05;32.67;;;;;;;;;;5017047;28;20049;-89
2023/04/17 00:06:44;;;;;;;59.58;35.25;;;;;;;;;;5017224;28;20140;-89
2023/04/17 00:09:11;;;;;;;59.95;34.15;;;;;;;;;;5016883;28;20509;-89
2023/04/17 00:11:39;;;;;;;66.03;36.08;;;;;;;;;;5017269;28;20042;-89
2023/04/17 00:14:06;;;;;;;64.47;35.58;;;;;;;;;;5016634;28;20109;-89
2023/04/17 00:16:33;;;;;;;56.78;34.15;;;;;;;;;;5016781;28;20448;-89
2023/04/17 00:19:00;;;;;;;62.00;34.80;;;;;;;;;;5016737;28;20050;-88
2023/04/17 00:21:31;;;;;;;57.63;34.30;;;;;;;;;;5016408;28;20049;-89
2023/04/17 00:23:58;;;;;;;55.65;34.80;;;;;;;;;;5016594;28;20049;-89
2023/04/17 00:26:25;;;;;;;61.67;35.45;;;;;;;;;;5016717;28;20136;-89
2023/04/17 00:28:52;;;;;;;71.68;37.75;;;;;;;;;;5016157;28;20399;-89
2023/04/17 00:31:20;;;;;;;56.83;34.90;;;;;;;;;;5016801;28;20064;-89
2023/04/17 00:33:47;;;;;;;51.53;33.45;;;;;;;;;;5016692;28;20042;-89
2023/04/17 00:36:14;;;;;;;65.03;37.83;;;;;;;;;;5016147;28;20055;-89
2023/04/17 00:38:41;;;;;;;56.33;34.50;;;;;;;;;;5016630;28;20046;-89
2023/04/17 00:41:09;;;;;;;56.72;34.22;;;;;;;;;;5016698;28;20073;-89
2023/04/17 00:43:37;;;;;;;63.00;37.88;;;;;;;;;;5016552;28;20422;-89
2023/04/17 00:46:05;;;;;;;57.40;35.05;;;;;;;;;;5016469;28;20048;-90
2023/04/17 00:48:33;;;;;;;63.75;37.30;;;;;;;;;;5016467;28;20498;-89
2023/04/17 00:51:02;;;;;;;56.40;33.88;;;;;;;;;;5016432;28;20053;-89
2023/04/17 00:53:30;;;;;;;54.58;34.88;;;;;;;;;;5016323;28;20048;-89
2023/04/17 00:56:03;;;;;;;68.65;36.70;;;;;;;;;;5016361;28;20060;-89
2023/04/17 00:58:30;;;;;;;52.60;31.92;;;;;;;;;;5016386;28;20056;-89
2023/04/17 01:00:57;;;;;;;48.85;32.47;;;;;;;;;;5017047;28;20071;-89
2023/04/17 01:03:25;;;;;;;50.13;31.35;;;;;;;;;;5020202;28;20081;-89
2023/04/17 01:05:52;;;;;;;52.10;33.20;;;;;;;;;;5016388;28;20057;-89
2023/04/17 01:08:19;;;;;;;49.67;31.70;;;;;;;;;;5016482;28;20056;-90
2023/04/17 01:10:46;;;;;;;54.15;33.33;;;;;;;;;;5016215;28;20504;-89
2023/04/17 01:13:14;;;;;;;50.83;31.80;;;;;;;;;;5016093;28;20045;-89
2023/04/17 01:15:41;;;;;;;52.25;32.45;;;;;;;;;;5016461;28;20453;-89
2023/04/17 01:18:09;;;;;;;51.08;31.67;;;;;;;;;;5020503;28;20073;-89
2023/04/17 01:20:36;;;;;;;46.40;30.27;;;;;;;;;;5020100;28;20071;-89
2023/04/17 01:23:03;;;;;;;44.65;29.23;;;;;;;;;;5020179;28;20054;-89
2023/04/17 01:25:31;;;;;;;46.38;30.35;;;;;;;;;;5020111;28;20057;-90
2023/04/17 01:27:58;;;;;;;51.03;29.85;;;;;;;;;;5019867;28;20132;-90
2023/04/17 01:30:26;;;;;;;43.22;28.90;;;;;;;;;;5019620;28;20061;-89
2023/04/17 01:32:54;;;;;;;40.70;27.80;;;;;;;;;;5020210;28;20053;-90
2023/04/17 01:35:22;;;;;;;46.40;28.85;;;;;;;;;;5019870;28;20080;-89
2023/04/17 01:37:49;;;;;;;36.85;26.38;;;;;;;;;;5019972;28;20140;-89
2023/04/17 01:40:17;;;;;;;38.08;25.83;;;;;;;;;;5019904;28;20049;-89
2023/04/17 01:42:44;;;;;;;38.20;25.70;;;;;;;;;;5019710;28;20046;-89
2023/04/17 01:45:11;;;;;;;41.58;25.05;;;;;;;;;;5019825;28;20053;-89
2023/04/17 01:47:38;;;;;;;43.25;25.65;;;;;;;;;;5019853;28;20075;-89
2023/04/17 01:50:07;;;;;;;32.80;23.75;;;;;;;;;;5019653;28;20057;-89
2023/04/17 01:52:35;;;;;;;39.85;24.77;;;;;;;;;;5019716;28;20083;-89
2023/04/17 01:55:03;;;;;;;38.40;26.00;;;;;;;;;;5019293;28;20088;-89
2023/04/17 01:57:30;;;;;;;41.58;26.80;;;;;;;;;;5019170;28;20051;-89
2023/04/17 01:59:57;;;;;;;36.50;24.95;;;;;;;;;;5019388;28;20390;-89
2023/04/17 02:02:24;;;;;;;45.40;28.67;;;;;;;;;;5019127;28;20046;-89
2023/04/17 02:04:52;;;;;;;36.90;26.15;;;;;;;;;;5019119;28;20072;-89
2023/04/17 02:07:20;;;;;;;37.95;26.83;;;;;;;;;;5018349;28;20504;-88
2023/04/17 02:09:47;;;;;;;42.65;28.48;;;;;;;;;;5018474;28;20045;-89
2023/04/17 02:12:15;;;;;;;52.00;29.67;;;;;;;;;;5018786;28;20145;-89
2023/04/17 02:14:42;;;;;;;43.22;27.05;;;;;;;;;;5018693;28;20049;-89
2023/04/17 02:17:09;;;;;;;46.08;28.40;;;;;;;;;;5018599;28;20051;-89
2023/04/17 02:19:37;;;;;;;47.20;30.05;;;;;;;;;;5018787;28;20123;-89
2023/04/17 02:22:04;;;;;;;39.85;27.80;;;;;;;;;;5018614;28;20045;-90
2023/04/17 02:24:31;;;;;;;40.40;26.55;;;;;;;;;;5018469;28;20084;-89
2023/04/17 02:26:59;;;;;;;38.03;26.70;;;;;;;;;;5018548;28;20049;-89
2023/04/17 02:29:26;;;;;;;38.40;27.27;;;;;;;;;;5017848;28;20053;-89
2023/04/17 02:31:53;;;;;;;39.35;26.65;;;;;;;;;;5018364;28;20060;-89
2023/04/17 02:34:20;;;;;;;35.38;25.40;;;;;;;;;;5018232;28;20482;-90
2023/04/17 02:36:47;;;;;;;35.83;26.45;;;;;;;;;;5018238;28;20071;-90
2023/04/17 02:39:14;;;;;;;35.63;25.75;;;;;;;;;;5018449;28;20145;-89
2023/04/17 02:41:42;;;;;;;39.30;27.05;;;;;;;;;;5018230;28;20049;-90
2023/04/17 02:44:09;;;;;;;38.78;27.02;;;;;;;;;;5018208;28;20053;-89
2023/04/17 02:46:37;;;;;;;38.30;28.73;;;;;;;;;;5018408;28;20165;-89
2023/04/17 02:49:04;;;;;;;41.10;28.58;;;;;;;;;;5018075;28;20477;-90
2023/04/17 02:51:31;;;;;;;42.03;29.48;;;;;;;;;;5017517;28;20063;-90
2023/04/17 02:53:59;;;;;;;98.30;70.18;;;;;;;;;;5018046;28;20413;-89
2023/04/17 02:56:26;;;;;;;124.93;73.32;;;;;;;;;;5018060;28;20045;-89
2023/04/17 02:58:53;;;;;;;141.55;82.45;;;;;;;;;;5017879;28;20055;-89
2023/04/17 03:01:21;;;;;;;117.95;64.80;;;;;;;;;;5017965;28;20052;-90
2023/04/17 03:03:48;;;;;;;61.92;39.75;;;;;;;;;;5017836;28;20056;-89
2023/04/17 03:06:16;;;;;;;49.83;31.55;;;;;;;;;;5017920;28;20406;-90
2023/04/17 03:08:44;;;;;;;41.65;30.23;;;;;;;;;;5017810;28;20145;-89
2023/04/17 03:11:11;;;;;;;46.10;31.15;;;;;;;;;;5017288;28;20055;-89
2023/04/17 03:13:38;;;;;;;42.92;29.20;;;;;;;;;;5017629;28;20112;-89
2023/04/17 03:16:05;;;;;;;39.33;28.38;;;;;;;;;;5017511;28;20148;-89
2023/04/17 03:18:34;;;;;;;44.08;29.83;;;;;;;;;;5017433;28;20104;-89
2023/04/17 03:21:01;;;;;;;35.33;27.02;;;;;;;;;;5017524;28;20073;-89
2023/04/17 03:23:28;;;;;;;41.45;29.90;;;;;;;;;;5017539;28;20056;-88
2023/04/17 03:25:55;;;;;;;44.05;30.67;;;;;;;;;;5017183;28;20136;-90
2023/04/17 03:28:23;;;;;;;47.70;29.65;;;;;;;;;;5017566;28;20502;-90
2023/04/17 03:30:50;;;;;;;43.78;29.52;;;;;;;;;;5016876;28;20058;-89
2023/04/17 03:33:17;;;;;;;45.85;31.50;;;;;;;;;;5017310;28;20045;-89
2023/04/17 03:35:45;;;;;;;41.75;29.60;;;;;;;;;;5017234;28;20056;-89
2023/04/17 03:38:12;;;;;;;37.38;28.55;;;;;;;;;;5016897;28;20053;-89
2023/04/17 03:40:40;;;;;;;41.13;29.30;;;;;;;;;;5017192;28;20056;-89
2023/04/17 03:43:07;;;;;;;36.95;27.23;;;;;;;;;;5017066;28;20052;-90
2023/04/17 03:45:35;;;;;;;40.95;30.50;;;;;;;;;;5016957;28;20049;-89
2023/04/17 03:48:02;;;;;;;45.25;31.13;;;;;;;;;;5017272;28;20413;-89
2023/04/17 03:50:30;;;;;;;42.08;30.08;;;;;;;;;;5017018;28;20053;-89
2023/04/17 03:52:57;;;;;;;39.08;29.90;;;;;;;;;;5016914;28;20055;-90
2023/04/17 03:55:24;;;;;;;40.08;28.52;;;;;;;;;;5016914;28;20049;-89
2023/04/17 03:57:51;;;;;;;42.05;29.63;;;;;;;;;;5016963;28;20068;-89
2023/04/17 04:00:20;;;;;;;40.88;28.55;;;;;;;;;;5016972;28;20056;-89
2023/04/17 04:02:48;;;;;;;37.92;28.70;;;;;;;;;;5016872;28;20073;-89
2023/04/17 04:05:15;;;;;;;38.30;29.35;;;;;;;;;;5016751;28;20060;-89
2023/04/17 04:07:43;;;;;;;37.15;28.45;;;;;;;;;;5016595;28;20080;-89
2023/04/17 04:10:10;;;;;;;39.28;28.83;;;;;;;;;;5016591;28;20049;-89
2023/04/17 04:12:37;;;;;;;37.92;27.55;;;;;;;;;;5016451;28;20056;-90
2023/04/17 04:15:05;;;;;;;45.35;29.13;;;;;;;;;;5016495;28;20059;-89
2023/04/17 04:17:32;;;;;;;41.38;28.70;;;;;;;;;;5016441;28;20060;-89
2023/04/17 04:19:59;;;;;;;40.88;29.73;;;;;;;;;;5016608;28;20053;-89
2023/04/17 04:22:28;;;;;;;37.55;27.40;;;;;;;;;;5016606;28;20060;-89
2023/04/17 04:24:55;;;;;;;41.42;29.05;;;;;;;;;;5016592;28;20069;-89
2023/04/17 04:27:22;;;;;;;35.25;26.30;;;;;;;;;;5016296;28;20049;-89
2023/04/17 04:29:49;;;;;;;41.63;29.23;;;;;;;;;;5016330;28;20063;-89
2023/04/17 04:32:16;;;;;;;40.92;29.67;;;;;;;;;;5016410;28;20136;-89
2023/04/17 04:34:44;;;;;;;41.78;28.55;;;;;;;;;;5015922;28;20056;-89
2023/04/17 04:37:14;;;;;;;41.85;30.52;;;;;;;;;;5016058;28;20064;-89
2023/04/17 04:39:42;;;;;;;45.50;30.45;;;;;;;;;;5016234;28;20051;-89
2023/04/17 04:42:09;;;;;;;38.63;29.52;;;;;;;;;;5015940;28;20497;-88
2023/04/17 04:44:36;;;;;;;42.38;28.40;;;;;;;;;;5016200;28;20482;-89
2023/04/17 04:47:04;;;;;;;37.55;28.30;;;;;;;;;;5016026;28;20152;-89
2023/04/17 04:49:31;;;;;;;39.10;28.52;;;;;;;;;;5015939;28;20053;-90
2023/04/17 04:51:58;;;;;;;39.72;28.55;;;;;;;;;;5015142;28;20421;-88
2023/04/17 04:54:25;;;;;;;41.47;30.35;;;;;;;;;;5015775;28;20049;-89
2023/04/17 04:56:53;;;;;;;42.00;29.20;;;;;;;;;;5016521;28;20053;-89
2023/04/17 04:59:20;;;;;;;38.83;27.98;;;;;;;;;;5016160;28;20054;-89
2023/04/17 05:01:48;;;;;;;42.83;29.52;;;;;;;;;;5015845;28;20076;-90
2023/04/17 05:04:15;;;;;;;45.55;29.73;;;;;;;;;;5015888;28;20053;-89
2023/04/17 05:06:43;;;;;;;38.97;27.52;;;;;;;;;;5015838;28;20284;-89
2023/04/17 05:09:10;;;;;;;29.85;23.83;;;;;;;;;;5015961;28;20057;-89
2023/04/17 05:11:39;;;;;;;37.58;27.35;;;;;;;;;;5015995;28;20056;-89
2023/04/17 05:14:06;;;;;;;37.03;26.75;;;;;;;;;;5014661;28;20056;-89
2023/04/17 05:16:33;;;;;;;41.38;28.95;;;;;;;;;;5015992;28;20049;-89
2023/04/17 05:19:00;;;;;;;34.42;25.05;;;;;;;;;;5016168;28;20049;-88
2023/04/17 05:21:27;;;;;;;39.80;24.08;;;;;;;;;;5015916;28;20072;-88
2023/04/17 05:23:57;;;;;;;35.38;24.27;;;;;;;;;;5016234;28;20060;-88
2023/04/17 05:26:24;;;;;;;33.15;23.40;;;;;;;;;;5017668;28;20053;-88
2023/04/17 05:28:51;;;;;;;29.10;22.13;;;;;;;;;;5016878;28;20071;-87
2023/04/17 05:31:19;;;;;;;33.47;23.17;;;;;;;;;;5015382;28;20046;-88
2023/04/17 05:33:46;;;;;;;101.65;54.10;;;;;;;;;;5015796;28;20041;-88
2023/04/17 05:36:14;;;;;;;33.75;25.23;;;;;;;;;;5015685;28;20532;-88
2023/04/17 05:38:41;;;;;;;58.92;37.78;;;;;;;;;;5015739;28;20049;-87
2023/04/17 05:41:11;;;;;;;42.50;29.73;;;;;;;;;;5015635;28;20049;-88
2023/04/17 05:43:38;;;;;;;35.13;24.73;;;;;;;;;;5015574;28;20052;-88
2023/04/17 05:46:05;;;;;;;32.38;22.75;;;;;;;;;;5015296;28;20476;-88
2023/04/17 05:48:33;;;;;;;39.75;28.25;;;;;;;;;;5015449;28;20053;-88
2023/04/17 05:51:00;;;;;;;32.05;23.33;;;;;;;;;;5005620;28;20074;-88
2023/04/17 05:53:29;;;;;;;30.85;22.90;;;;;;;;;;4995284;28;20112;-88
2023/04/17 05:55:57;;;;;;;38.28;24.80;;;;;;;;;;4995497;28;20053;-86
2023/04/17 05:58:24;;;;;;;29.33;21.75;;;;;;;;;;4995361;28;20060;-87
2023/04/17 06:00:51;;;;;;;41.80;29.05;;;;;;;;;;5012160;28;20049;-88
2023/04/17 06:03:19;;;;;;;37.13;27.67;;;;;;;;;;5015679;28;20045;-87
2023/04/17 06:05:47;;;;;;;31.05;23.60;;;;;;;;;;4999323;28;20141;-87
2023/04/17 06:08:15;;;;;;;33.33;25.27;;;;;;;;;;5016203;28;20096;-88
2023/04/17 06:10:44;;;;;;;29.80;22.73;;;;;;;;;;4998889;28;20054;-87
2023/04/17 06:13:12;;;;;;;30.27;22.17;;;;;;;;;;4999026;28;20049;-87
2023/04/17 06:15:39;;;;;;;26.20;19.77;;;;;;;;;;4998765;28;20123;-87
2023/04/17 06:18:06;;;;;;;38.30;27.42;;;;;;;;;;4999046;28;20054;-87
2023/04/17 06:20:34;;;;;;;32.17;26.33;;;;;;;;;;4998718;28;20059;-88
2023/04/17 06:23:01;;;;;;;27.10;22.08;;;;;;;;;;4998704;28;20046;-87
2023/04/17 06:25:28;;;;;;;26.45;21.02;;;;;;;;;;4998618;28;20054;-88
2023/04/17 06:27:56;;;;;;;26.42;19.75;;;;;;;;;;5016172;28;20058;-87
2023/04/17 06:30:23;;;;;;;25.58;19.10;;;;;;;;;;4998226;28;20060;-87
2023/04/17 06:32:50;;;;;;;27.05;22.15;;;;;;;;;;4998782;28;20049;-87
2023/04/17 06:35:17;;;;;;;21.92;17.88;;;;;;;;;;4998357;28;20092;-86
2023/04/17 06:37:45;;;;;;;22.20;17.13;;;;;;;;;;4998730;28;20057;-87
2023/04/17 06:40:12;;;;;;;24.15;18.27;;;;;;;;;;5015676;28;20060;-87
2023/04/17 06:42:40;;;;;;;23.63;17.23;;;;;;;;;;4998477;28;20410;-87
2023/04/17 06:45:07;;;;;;;25.00;18.77;;;;;;;;;;4998271;28;20092;-87
2023/04/17 06:47:34;;;;;;;21.17;17.73;;;;;;;;;;5015714;28;20081;-86
2023/04/17 06:50:02;;;;;;;22.67;16.70;;;;;;;;;;5015675;28;20084;-87
2023/04/17 06:52:29;;;;;;;19.65;16.67;;;;;;;;;;5015235;28;20069;-87
2023/04/17 06:54:58;;;;;;;21.63;17.15;;;;;;;;;;4998606;28;20052;-88
2023/04/17 06:57:25;;;;;;;20.65;16.88;;;;;;;;;;4997949;28;20050;-86
2023/04/17 06:59:55;;;;;;;19.40;15.30;;;;;;;;;;5015467;28;20057;-87
2023/04/17 07:02:22;;;;;;;78.05;47.22;;;;;;;;;;4998180;28;20054;-88
2023/04/17 07:04:52;;;;;;;39.95;27.85;;;;;;;;;;4998336;28;20100;-87
2023/04/17 07:07:19;;;;;;;28.45;19.80;;;;;;;;;;4998328;28;20061;-88
2023/04/17 07:09:47;;;;;;;64.72;41.17;;;;;;;;;;4998050;28;20065;-87
2023/04/17 07:12:14;;;;;;;65.38;37.05;;;;;;;;;;4998161;28;20056;-87
2023/04/17 07:14:42;;;;;;;213.70;114.80;;;;;;;;;;4997053;28;20544;-87
2023/04/17 07:17:10;;;;;;;35.13;22.88;;;;;;;;;;5015101;28;20053;-88
2023/04/17 07:19:37;;;;;;;16.70;12.93;;;;;;;;;;5015160;28;20046;-88
2023/04/17 07:22:04;;;;;;;18.45;13.35;;;;;;;;;;5015034;28;20525;-88
2023/04/17 07:24:35;;;;;;;25.83;20.05;;;;;;;;;;4997806;28;20053;-87
2023/04/17 07:27:02;;;;;;;14.57;11.70;;;;;;;;;;4998240;28;20137;-88
2023/04/17 07:29:30;;;;;;;11.82;9.95;;;;;;;;;;5003156;28;20058;-88
2023/04/17 07:31:57;;;;;;;11.60;10.40;;;;;;;;;;4997807;28;20054;-88
2023/04/17 07:34:24;;;;;;;13.35;10.60;;;;;;;;;;4997690;28;20046;-88
2023/04/17 07:36:52;;;;;;;23.17;15.63;;;;;;;;;;4997586;28;20054;-87
2023/04/17 07:39:19;;;;;;;31.05;18.83;;;;;;;;;;4997679;28;20052;-87
2023/04/17 07:41:47;;;;;;;12.50;10.90;;;;;;;;;;5014830;28;20532;-87
2023/04/17 07:44:14;;;;;;;10.88;9.48;;;;;;;;;;4997173;28;20071;-87
2023/04/17 07:46:43;;;;;;;11.20;8.88;;;;;;;;;;5014528;28;20568;-88
2023/04/17 07:49:11;;;;;;;11.43;10.18;;;;;;;;;;4997698;28;20042;-88
2023/04/17 07:51:39;;;;;;;7.60;6.90;;;;;;;;;;4997640;28;20060;-88
2023/04/17 07:54:07;;;;;;;10.43;9.43;;;;;;;;;;4997703;28;20513;-87
2023/04/17 07:56:35;;;;;;;9.25;8.18;;;;;;;;;;4997179;28;20085;-88
2023/04/17 07:59:03;;;;;;;8.75;7.65;;;;;;;;;;4997149;28;20069;-88
2023/04/17 08:01:30;;;;;;;7.90;7.20;;;;;;;;;;4997383;28;20494;-88
2023/04/17 08:03:58;;;;;;;19.02;14.93;;;;;;;;;;4996819;28;20124;-88
2023/04/17 08:06:26;;;;;;;12.90;11.02;;;;;;;;;;4997226;28;20157;-87
2023/04/17 08:08:53;;;;;;;14.57;11.25;;;;;;;;;;4997465;28;20034;-88
2023/04/17 08:11:21;;;;;;;10.80;9.13;;;;;;;;;;4996806;28;20088;-88
2023/04/17 08:13:48;;;;;;;33.70;17.55;;;;;;;;;;4997008;28;20042;-88
2023/04/17 08:16:18;;;;;;;19.52;11.05;;;;;;;;;;5014386;28;20049;-87
2023/04/17 08:18:46;;;;;;;11.27;6.25;;;;;;;;;;4996956;28;20124;-88
2023/04/17 08:21:13;;;;;;;12.32;7.65;;;;;;;;;;5013982;28;20056;-88
2023/04/17 08:23:40;;;;;;;7.75;5.50;;;;;;;;;;4996575;28;20083;-88
2023/04/17 08:26:07;;;;;;;8.05;4.85;;;;;;;;;;5014049;28;20101;-88
2023/04/17 08:28:35;;;;;;;7.80;5.47;;;;;;;;;;4996776;28;20060;-88
2023/04/17 08:31:02;;;;;;;4.93;4.53;;;;;;;;;;4996792;28;20104;-88
2023/04/17 08:33:29;;;;;;;4.40;4.10;;;;;;;;;;4996956;28;20053;-88
2023/04/17 08:35:56;;;;;;;6.30;4.28;;;;;;;;;;4996887;28;20050;-88
2023/04/17 08:38:26;;;;;;;5.43;4.93;;;;;;;;;;4996533;28;20085;-89
2023/04/17 08:40:53;;;;;;;4.80;4.50;;;;;;;;;;5013768;28;20132;-88
2023/04/17 08:43:21;;;;;;;5.70;5.20;;;;;;;;;;5013832;28;20042;-87
2023/04/17 08:45:52;;;;;;;12.18;7.03;;;;;;;;;;4996902;28;20072;-88
2023/04/17 08:48:24;;;;;;;13.98;6.97;;;;;;;;;;4996426;28;20490;-87
2023/04/17 08:50:52;;;;;;;31.77;11.13;;;;;;;;;;4996301;28;20064;-88
2023/04/17 08:53:19;;;;;;;10.18;6.10;;;;;;;;;;4996519;28;20502;-88
2023/04/17 08:55:47;;;;;;;6.82;6.22;;;;;;;;;;4996389;28;20052;-88
2023/04/17 08:58:14;;;;;;;11.75;8.40;;;;;;;;;;5013631;28;20089;-88
2023/04/17 09:00:42;;;;;;;27.90;13.88;;;;;;;;;;4996494;28;20502;-88
2023/04/17 09:03:11;;;;;;;38.50;13.70;;;;;;;;;;4996023;28;20570;-88
2023/04/17 09:05:47;;;;;;;25.25;11.35;;;;;;;;;;4996013;28;20052;-88
2023/04/17 09:08:15;;;;;;;20.08;12.45;;;;;;;;;;4996477;28;20052;-88
2023/04/17 09:10:44;;;;;;;9.25;7.90;;;;;;;;;;4996868;28;20053;-88
2023/04/17 09:13:15;;;;;;;16.10;8.07;;;;;;;;;;5013528;28;20512;-88
2023/04/17 09:15:43;;;;;;;10.30;7.00;;;;;;;;;;4996400;28;20134;-88
2023/04/17 09:18:27;;;;;;;6.30;5.70;;;;;;;;;;5013779;28;20132;-88
2023/04/17 09:20:56;;;;;;;20.08;9.38;;;;;;;;;;4996573;28;20057;-87
2023/04/17 09:23:23;;;;;;;14.48;7.85;;;;;;;;;;4996293;28;20049;-88
2023/04/17 09:26:09;;;;;;;7.30;5.95;;;;;;;;;;4996401;28;20050;-88
2023/04/17 09:28:42;;;;;;;13.85;10.10;;;;;;;;;;4996664;28;20062;-88
2023/04/17 09:31:18;;;;;;;7.67;6.97;;;;;;;;;;4996588;28;20128;-88
2023/04/17 09:33:55;;;;;;;12.85;6.80;;;;;;;;;;5013781;28;20049;-88
2023/04/17 09:36:22;;;;;;;7.30;6.53;;;;;;;;;;4996035;28;20491;-88
2023/04/17 09:38:50;;;;;;;22.30;10.20;;;;;;;;;;5017261;28;20046;-88
2023/04/17 09:41:27;;;;;;;8.70;6.97;;;;;;;;;;5000133;28;20046;-87
2023/04/17 09:43:55;;;;;;;8.32;6.38;;;;;;;;;;4999897;28;20064;-87
2023/04/17 09:46:32;;;;;;;8.05;6.28;;;;;;;;;;5017288;28;20050;-88
2023/04/17 09:49:00;;;;;;;6.18;5.57;;;;;;;;;;5000007;28;20046;-88
2023/04/17 09:51:27;;;;;;;6.82;6.32;;;;;;;;;;4999643;28;20077;-88
2023/04/17 09:53:56;;;;;;;8.52;7.05;;;;;;;;;;5016787;28;20129;-88
2023/04/17 09:56:23;;;;;;;8.85;7.45;;;;;;;;;;5016901;28;20050;-87
2023/04/17 09:58:51;;;;;;;9.00;7.00;;;;;;;;;;4999821;28;20050;-87
2023/04/17 10:01:18;;;;;;;8.13;7.32;;;;;;;;;;5016910;28;20050;-88
2023/04/17 10:03:46;;;;;;;8.38;7.68;;;;;;;;;;4999359;28;20457;-86
2023/04/17 10:06:14;;;;;;;9.70;8.70;;;;;;;;;;5016298;28;20057;-87
2023/04/17 10:08:41;;;;;;;9.93;8.98;;;;;;;;;;5016873;28;20052;-87
2023/04/17 10:11:09;;;;;;;9.65;8.40;;;;;;;;;;5016515;28;20061;-87
2023/04/17 10:13:37;;;;;;;8.18;7.38;;;;;;;;;;4999369;28;20045;-87
2023/04/17 10:16:05;;;;;;;8.85;7.78;;;;;;;;;;5016428;28;20053;-88
2023/04/17 10:18:32;;;;;;;13.75;8.82;;;;;;;;;;4999304;28;20049;-88
2023/04/17 10:21:20;;;;;;;9.25;8.35;;;;;;;;;;4999487;28;20577;-87
2023/04/17 10:23:48;;;;;;;8.48;7.72;;;;;;;;;;4999547;28;20046;-88
2023/04/17 10:26:24;;;;;;;9.13;7.95;;;;;;;;;;4999045;28;20057;-88
2023/04/17 10:28:52;;;;;;;9.43;8.57;;;;;;;;;;5016284;28;20080;-87
2023/04/17 10:31:20;;;;;;;35.60;28.52;;;;;;;;;;4999400;28;20084;-87
2023/04/17 10:33:48;;;;;;;27.83;18.27;;;;;;;;;;4998694;28;20057;-88
2023/04/17 10:36:35;;;;;;;29.48;19.35;;;;;;;;;;4998853;28;20481;-88
2023/04/17 10:39:15;;;;;;;20.05;16.42;;;;;;;;;;5016033;28;20128;-87
2023/04/17 10:42:01;;;;;;;17.83;15.00;;;;;;;;;;5016198;28;20050;-87
2023/04/17 10:44:38;;;;;;;18.83;16.83;;;;;;;;;;4998584;28;20080;-87
2023/04/17 10:47:06;;;;;;;22.52;18.60;;;;;;;;;;4999061;28;20406;-88
2023/04/17 10:50:09;;;;;;;22.35;17.10;;;;;;;;;;4996931;28;20137;-88
2023/04/17 10:52:37;;;;;;;20.02;16.50;;;;;;;;;;4958701;28;20055;-88
2023/04/17 10:55:08;;;;;;;20.70;17.92;;;;;;;;;;5008091;28;20052;-88
2023/04/17 10:57:54;;;;;;;21.23;17.00;;;;;;;;;;5015914;28;20050;-88
2023/04/17 11:00:30;;;;;;;21.80;18.38;;;;;;;;;;4998455;28;20494;-88
2023/04/17 11:02:57;;;;;;;25.13;19.85;;;;;;;;;;4998684;28;20050;-87
2023/04/17 11:05:25;;;;;;;25.02;19.73;;;;;;;;;;4998219;28;20093;-88
2023/04/17 11:07:52;;;;;;;23.27;19.23;;;;;;;;;;4998486;28;20053;-88
2023/04/17 11:10:20;;;;;;;23.52;18.52;;;;;;;;;;4998096;28;20418;-86
2023/04/17 11:12:48;;;;;;;21.45;19.05;;;;;;;;;;5015414;28;20053;-88
2023/04/17 11:15:16;;;;;;;20.90;18.80;;;;;;;;;;4996912;28;20054;-88
2023/04/17 11:17:47;;;;;;;23.08;19.42;;;;;;;;;;4998658;28;20133;-89
2023/04/17 11:20:16;;;;;;;24.63;17.92;;;;;;;;;;4998387;28;20046;-87
2023/04/17 11:22:43;;;;;;;21.40;17.25;;;;;;;;;;4998241;28;20046;-89
2023/04/17 11:25:21;;;;;;;22.45;17.65;;;;;;;;;;4997978;28;20053;-89
2023/04/17 11:27:55;;;;;;;24.42;18.90;;;;;;;;;;4998338;28;20050;-89
2023/04/17 11:30:24;;;;;;;21.23;17.35;;;;;;;;;;4998073;28;20068;-89
2023/04/17 11:32:52;;;;;;;21.02;18.77;;;;;;;;;;4998028;28;20085;-89
2023/04/17 11:35:23;;;;;;;22.90;18.08;;;;;;;;;;4997883;28;20410;-89
2023/04/17 11:38:16;;;;;;;23.90;19.27;;;;;;;;;;4998150;28;20136;-90
2023/04/17 11:40:44;;;;;;;46.70;39.80;;;;;;;;;;4998254;28;20080;-89
2023/04/17 11:43:12;;;;;;;49.25;39.45;;;;;;;;;;4997914;28;20050;-89
2023/04/17 11:45:40;;;;;;;85.45;76.95;;;;;;;;;;5014607;28;20045;-89
2023/04/17 11:48:09;;;;;;;38.88;28.75;;;;;;;;;;4997784;28;20141;-90
2023/04/17 11:50:37;;;;;;;41.00;31.60;;;;;;;;;;4997737;28;20471;-89
2023/04/17 11:53:04;;;;;;;42.03;29.42;;;;;;;;;;5001205;28;20045;-89
2023/04/17 11:55:33;;;;;;;112.13;76.50;;;;;;;;;;4997910;28;20046;-90
2023/04/17 11:58:02;;;;;;;45.88;32.08;;;;;;;;;;4997840;28;20473;-89
2023/04/17 12:00:30;;;;;;;59.72;40.85;;;;;;;;;;4996738;28;20046;-90
2023/04/17 12:02:58;;;;;;;52.80;37.78;;;;;;;;;;4997235;28;20053;-89
2023/04/17 12:05:26;;;;;;;39.47;29.77;;;;;;;;;;4999589;28;20057;-89
2023/04/17 12:08:01;;;;;;;28.75;22.75;;;;;;;;;;4999790;28;20050;-89
2023/04/17 12:10:39;;;;;;;34.47;28.35;;;;;;;;;;4996952;28;20057;-90
2023/04/17 12:13:06;;;;;;;30.02;24.27;;;;;;;;;;4996687;28;20095;-90
2023/04/17 12:15:34;;;;;;;38.28;32.85;;;;;;;;;;4996508;28;20516;-89
2023/04/17 12:18:05;;;;;;;26.50;21.77;;;;;;;;;;4997216;28;20049;-90
2023/04/17 12:20:33;;;;;;;30.55;24.38;;;;;;;;;;4998047;28;20073;-89
2023/04/17 12:23:00;;;;;;;40.72;30.92;;;;;;;;;;5014047;28;20071;-90
2023/04/17 12:25:28;;;;;;;40.58;32.88;;;;;;;;;;4996466;28;20042;-90
2023/04/17 12:27:56;;;;;;;34.15;24.80;;;;;;;;;;4996601;28;20065;-91
2023/04/17 12:30:23;;;;;;;31.30;24.88;;;;;;;;;;5013734;28;20566;-90
2023/04/17 12:32:51;;;;;;;24.25;21.15;;;;;;;;;;4996574;28;20045;-89
2023/04/17 12:35:19;;;;;;;26.33;19.70;;;;;;;;;;4998018;28;20046;-90
2023/04/17 12:37:50;;;;;;;29.92;23.25;;;;;;;;;;4997017;28;20064;-90
2023/04/17 12:40:18;;;;;;;25.80;21.23;;;;;;;;;;4996657;28;20058;-91
2023/04/17 12:42:49;;;;;;;25.92;20.50;;;;;;;;;;4996976;28;20445;-90
2023/04/17 12:45:16;;;;;;;22.83;19.23;;;;;;;;;;4996139;28;20056;-90
2023/04/17 12:47:46;;;;;;;25.02;20.25;;;;;;;;;;4997096;28;20068;-90
2023/04/17 12:50:14;;;;;;;25.77;20.02;;;;;;;;;;4996499;28;20148;-90
2023/04/17 12:52:41;;;;;;;23.58;19.23;;;;;;;;;;4996066;28;20053;-90
2023/04/17 12:55:09;;;;;;;24.20;20.55;;;;;;;;;;4996320;28;20050;-91
2023/04/17 12:57:36;;;;;;;27.63;20.83;;;;;;;;;;4996157;28;20057;-90
2023/04/17 13:00:08;;;;;;;24.17;19.75;;;;;;;;;;5013388;28;20050;-90
2023/04/17 13:02:35;;;;;;;23.33;19.88;;;;;;;;;;4996531;28;20046;-89
2023/04/17 13:05:05;;;;;;;27.27;21.35;;;;;;;;;;4996056;28;20062;-90
2023/04/17 13:07:33;;;;;;;27.70;20.92;;;;;;;;;;4996531;28;20510;-90
2023/04/17 13:10:00;;;;;;;24.05;20.73;;;;;;;;;;4996552;28;20061;-90
2023/04/17 13:12:27;;;;;;;25.73;18.90;;;;;;;;;;4998102;28;20103;-89
2023/04/17 13:14:56;;;;;;;22.65;19.25;;;;;;;;;;5017588;28;20423;-90
2023/04/17 13:17:24;;;;;;;19.98;17.55;;;;;;;;;;4999983;28;20494;-90
2023/04/17 13:19:51;;;;;;;22.05;17.38;;;;;;;;;;5000148;28;20046;-90
2023/04/17 13:22:19;;;;;;;19.55;16.77;;;;;;;;;;5000456;28;20096;-90
2023/04/17 13:24:49;;;;;;;21.10;16.42;;;;;;;;;;5017305;28;20054;-90
2023/04/17 13:27:16;;;;;;;20.38;16.85;;;;;;;;;;5000125;28;20049;-92
2023/04/17 13:29:43;;;;;;;20.52;16.02;;;;;;;;;;4999801;28;20064;-91
2023/04/17 13:32:10;;;;;;;22.55;17.58;;;;;;;;;;4999963;28;20049;-90
2023/04/17 13:34:38;;;;;;;17.17;13.73;;;;;;;;;;5016828;28;20062;-90
2023/04/17 13:37:06;;;;;;;18.33;13.10;;;;;;;;;;4999898;28;20057;-90
2023/04/17 13:39:33;;;;;;;15.52;13.90;;;;;;;;;;4999840;28;20084;-91
2023/04/17 13:42:00;;;;;;;21.70;15.40;;;;;;;;;;5017203;28;20046;-91
2023/04/17 13:44:28;;;;;;;18.08;14.68;;;;;;;;;;4999584;28;20144;-90
2023/04/17 13:46:55;;;;;;;16.58;12.80;;;;;;;;;;4999700;28;20050;-91
2023/04/17 13:49:22;;;;;;;14.73;13.00;;;;;;;;;;4999588;28;20054;-91
2023/04/17 13:51:49;;;;;;;20.70;18.20;;;;;;;;;;4999586;28;20046;-89
2023/04/17 13:54:17;;;;;;;19.95;16.33;;;;;;;;;;4999506;28;20056;-90
2023/04/17 13:56:44;;;;;;;21.70;15.73;;;;;;;;;;5000758;28;20050;-92
2023/04/17 13:59:14;;;;;;;16.50;14.30;;;;;;;;;;4999888;28;20060;-91
2023/04/17 14:01:42;;;;;;;39.40;14.48;;;;;;;;;;4999348;28;20042;-91
2023/04/17 14:04:09;;;;;;;34.92;15.00;;;;;;;;;;4999199;28;20050;-91
2023/04/17 14:06:36;;;;;;;23.52;15.02;;;;;;;;;;5001917;28;20053;-90
2023/04/17 14:09:04;;;;;;;17.27;14.68;;;;;;;;;;5016605;28;20054;-92
2023/04/17 14:11:32;;;;;;;17.65;13.32;;;;;;;;;;4999592;28;20046;-92
2023/04/17 14:13:59;;;;;;;25.27;14.27;;;;;;;;;;4999048;28;20049;-91
2023/04/17 14:16:26;;;;;;;17.65;14.25;;;;;;;;;;4999408;28;20060;-91
2023/04/17 14:18:54;;;;;;;20.15;12.65;;;;;;;;;;4999479;28;20099;-90
2023/04/17 14:21:26;;;;;;;16.95;13.02;;;;;;;;;;5000001;28;20046;-92
2023/04/17 14:23:55;;;;;;;21.88;14.10;;;;;;;;;;4998913;28;20508;-91
2023/04/17 14:26:22;;;;;;;36.70;14.43;;;;;;;;;;4998704;28;20050;-91
2023/04/17 14:28:50;;;;;;;26.63;14.07;;;;;;;;;;4998872;28;20058;-91